createdAt,value
2023-03-18T00:01:41.788Z,2.50
2023-03-18T00:04:08.389Z,2.13
2023-03-18T00:06:38.090Z,3.03
2023-03-18T00:09:05.208Z,2.40
2023-03-18T00:11:31.754Z,2.55
2023-03-18T00:13:58.316Z,2.58
2023-03-18T00:16:25.298Z,2.50
2023-03-18T00:18:53.030Z,2.53
2023-03-18T00:21:19.366Z,2.30
2023-03-18T00:23:46.222Z,2.20
2023-03-18T00:26:12.577Z,2.90
2023-03-18T00:28:39.058Z,2.50
2023-03-18T00:31:08.631Z,1.80
2023-03-18T00:33:36.469Z,1.67
2023-03-18T00:36:03.166Z,2.00
2023-03-18T00:38:30.370Z,2.00
2023-03-18T00:41:12.124Z,2.20
2023-03-18T00:43:46.895Z,2.30
2023-03-18T00:46:14.568Z,2.67
2023-03-18T00:48:41.054Z,2.33
2023-03-18T00:51:07.502Z,2.67
2023-03-18T00:53:34.143Z,2.30
2023-03-18T00:56:00.602Z,2.20
2023-03-18T00:58:27.020Z,2.22
2023-03-18T01:00:53.432Z,2.42
2023-03-18T01:03:19.927Z,2.45
2023-03-18T01:05:46.534Z,2.40
2023-03-18T01:08:13.062Z,2.30
2023-03-18T01:10:39.485Z,2.53
2023-03-18T01:13:05.902Z,2.37
2023-03-18T01:15:32.358Z,2.50
2023-03-18T01:17:59.670Z,2.42
2023-03-18T01:20:26.381Z,2.53
2023-03-18T01:22:52.790Z,2.42
2023-03-18T01:25:19.410Z,2.20
2023-03-18T01:27:45.970Z,2.60
2023-03-18T01:30:13.455Z,2.40
2023-03-18T01:32:39.950Z,2.50
2023-03-18T01:35:06.728Z,2.30
2023-03-18T01:37:33.432Z,2.30
2023-03-18T01:40:00.774Z,2.27
2023-03-18T01:42:27.311Z,2.20
2023-03-18T01:45:29.052Z,2.30
2023-03-18T01:47:56.027Z,2.37
2023-03-18T01:50:24.922Z,3.47
2023-03-18T01:52:53.034Z,4.27
2023-03-18T01:55:22.520Z,4.43
2023-03-18T01:57:49.612Z,3.27
2023-03-18T02:00:17.125Z,2.97
2023-03-18T02:02:44.782Z,2.10
2023-03-18T02:05:12.900Z,2.60
2023-03-18T02:07:41.115Z,2.20
2023-03-18T02:10:10.950Z,2.60
2023-03-18T02:12:40.104Z,2.03
2023-03-18T02:15:10.433Z,1.83
2023-03-18T02:17:42.324Z,1.97
2023-03-18T02:20:32.261Z,2.37
2023-03-18T02:23:03.192Z,2.50
2023-03-18T02:25:52.616Z,2.67
2023-03-18T02:28:21.673Z,2.40
2023-03-18T02:30:49.987Z,2.47
2023-03-18T02:33:17.819Z,2.37
2023-03-18T02:35:50.265Z,2.50
2023-03-18T02:38:16.655Z,2.70
2023-03-18T02:40:43.092Z,2.00
2023-03-18T02:43:20.200Z,2.10
2023-03-18T02:46:02.225Z,2.20
2023-03-18T02:48:33.279Z,2.20
2023-03-18T02:50:59.668Z,2.60
2023-03-18T02:53:26.981Z,2.20
2023-03-18T02:55:53.954Z,1.93
2023-03-18T02:58:20.351Z,3.90
2023-03-18T03:00:46.798Z,3.10
2023-03-18T03:03:13.554Z,3.70
2023-03-18T03:05:39.968Z,3.90
2023-03-18T03:08:07.079Z,2.90
2023-03-18T03:10:33.892Z,2.67
2023-03-18T03:13:00.727Z,2.03
2023-03-18T03:15:27.263Z,1.90
2023-03-18T03:17:54.512Z,2.43
2023-03-18T03:20:21.521Z,2.40
2023-03-18T03:22:48.033Z,2.90
2023-03-18T03:25:14.767Z,2.40
2023-03-18T03:27:42.050Z,2.97
2023-03-18T03:30:09.699Z,2.40
2023-03-18T03:32:36.358Z,2.83
2023-03-18T03:35:02.792Z,2.83
2023-03-18T03:37:29.642Z,2.40
2023-03-18T03:39:56.085Z,2.37
2023-03-18T03:42:22.456Z,2.30
2023-03-18T03:44:48.841Z,3.10
2023-03-18T03:47:15.338Z,2.83
2023-03-18T03:49:41.658Z,2.47
2023-03-18T03:52:08.180Z,2.30
2023-03-18T03:54:34.647Z,2.50
2023-03-18T03:57:01.232Z,2.53
2023-03-18T03:59:28.167Z,2.43
2023-03-18T04:01:54.849Z,2.20
2023-03-18T04:04:21.226Z,1.97
2023-03-18T04:06:47.680Z,2.27
2023-03-18T04:09:14.336Z,2.40
2023-03-18T04:11:41.009Z,2.30
2023-03-18T04:14:25.648Z,2.13
2023-03-18T04:17:12.054Z,2.40
2023-03-18T04:19:39.315Z,2.30
2023-03-18T04:22:06.004Z,2.60
2023-03-18T04:24:32.564Z,2.70
2023-03-18T04:26:59.001Z,2.67
2023-03-18T04:29:25.592Z,3.13
2023-03-18T04:31:52.263Z,2.37
2023-03-18T04:34:18.725Z,2.50
2023-03-18T04:36:45.077Z,3.23
2023-03-18T04:39:11.443Z,3.27
2023-03-18T04:41:37.836Z,3.60
2023-03-18T04:44:04.324Z,2.93
2023-03-18T04:46:31.884Z,2.30
2023-03-18T04:48:58.914Z,2.23
2023-03-18T04:51:25.766Z,2.43
2023-03-18T04:53:52.389Z,2.10
2023-03-18T04:56:19.539Z,2.27
2023-03-18T04:58:46.420Z,3.13
2023-03-18T05:01:13.196Z,6.87
2023-03-18T05:03:40.285Z,7.53
2023-03-18T05:06:06.757Z,11.43
2023-03-18T05:08:33.454Z,9.77
2023-03-18T05:11:00.106Z,7.07
2023-03-18T05:13:26.546Z,5.20
2023-03-18T05:15:53.560Z,4.03
2023-03-18T05:18:20.254Z,3.80
2023-03-18T05:20:47.094Z,4.40
2023-03-18T05:23:13.507Z,3.87
2023-03-18T05:25:39.891Z,3.73
2023-03-18T05:28:06.706Z,4.33
2023-03-18T05:30:34.384Z,4.50
2023-03-18T05:33:00.781Z,4.23
2023-03-18T05:35:27.526Z,4.27
2023-03-18T05:37:53.870Z,3.60
2023-03-18T05:40:20.370Z,2.63
2023-03-18T05:42:55.729Z,3.30
2023-03-18T05:45:23.195Z,3.50
2023-03-18T05:47:49.535Z,6.27
2023-03-18T05:50:26.980Z,4.50
2023-03-18T05:52:53.463Z,5.50
2023-03-18T05:55:19.904Z,4.90
2023-03-18T05:57:48.574Z,6.50
2023-03-18T06:00:15.445Z,6.40
2023-03-18T06:02:42.334Z,4.47
2023-03-18T06:05:08.948Z,4.60
2023-03-18T06:07:35.373Z,5.30
2023-03-18T06:10:01.812Z,4.00
2023-03-18T06:12:28.596Z,4.13
2023-03-18T06:14:55.103Z,5.73
2023-03-18T06:17:21.777Z,5.20
2023-03-18T06:19:48.271Z,3.90
2023-03-18T06:22:18.119Z,3.00
2023-03-18T06:24:45.236Z,3.10
2023-03-18T06:27:13.596Z,3.30
2023-03-18T06:29:41.011Z,3.07
2023-03-18T06:32:08.118Z,3.03
2023-03-18T06:34:36.223Z,2.47
2023-03-18T06:37:04.413Z,2.60
2023-03-18T06:39:30.799Z,3.07
2023-03-18T06:41:57.674Z,2.67
2023-03-18T06:44:24.640Z,3.00
2023-03-18T06:46:51.020Z,2.90
2023-03-18T06:49:17.542Z,3.07
2023-03-18T06:51:43.994Z,2.93
2023-03-18T06:54:10.476Z,2.73
2023-03-18T06:56:38.953Z,2.73
2023-03-18T06:59:06.100Z,2.90
2023-03-18T07:01:33.043Z,2.70
2023-03-18T07:04:00.629Z,2.63
2023-03-18T07:06:27.351Z,2.30
2023-03-18T07:08:54.638Z,2.40
2023-03-18T07:11:21.930Z,2.43
2023-03-18T07:13:48.700Z,2.67
2023-03-18T07:16:15.529Z,2.30
2023-03-18T07:18:42.706Z,3.13
2023-03-18T07:21:10.041Z,2.87
2023-03-18T07:23:36.448Z,2.40
2023-03-18T07:26:02.873Z,2.60
2023-03-18T07:28:29.237Z,3.07
2023-03-18T07:30:56.435Z,2.73
2023-03-18T07:33:23.910Z,3.00
2023-03-18T07:35:51.074Z,3.20
2023-03-18T07:38:18.177Z,2.70
2023-03-18T07:40:44.562Z,2.90
2023-03-18T07:43:11.540Z,2.87
2023-03-18T07:45:38.204Z,2.60
2023-03-18T07:48:05.660Z,2.63
2023-03-18T07:50:32.592Z,3.40
2023-03-18T07:52:59.771Z,2.90
2023-03-18T07:55:26.214Z,3.70
2023-03-18T07:57:52.685Z,3.70
2023-03-18T08:00:19.322Z,4.70
2023-03-18T08:02:45.961Z,3.63
2023-03-18T08:05:13.749Z,2.95
2023-03-18T08:07:40.242Z,2.63
2023-03-18T08:10:07.054Z,2.00
2023-03-18T08:12:45.256Z,2.28
2023-03-18T08:15:18.500Z,2.35
2023-03-18T08:17:44.952Z,2.60
2023-03-18T08:20:12.291Z,2.38
2023-03-18T08:22:38.757Z,2.67
2023-03-18T08:25:05.488Z,2.45
2023-03-18T08:27:31.895Z,2.78
2023-03-18T08:29:58.589Z,2.67
2023-03-18T08:32:25.624Z,2.60
2023-03-18T08:34:52.422Z,2.58
2023-03-18T08:37:19.393Z,2.90
2023-03-18T08:39:45.992Z,2.97
2023-03-18T08:42:12.468Z,2.72
2023-03-18T08:44:40.171Z,2.92
2023-03-18T08:47:08.125Z,2.10
2023-03-18T08:49:34.483Z,2.03
2023-03-18T08:52:00.872Z,2.33
2023-03-18T08:54:27.819Z,2.63
2023-03-18T08:56:55.260Z,5.20
2023-03-18T08:59:21.767Z,15.25
2023-03-18T09:01:49.086Z,2.30
2023-03-18T09:04:15.395Z,2.47
2023-03-18T09:06:42.067Z,2.22
2023-03-18T09:09:08.485Z,2.55
2023-03-18T09:11:35.826Z,2.60
2023-03-18T09:14:02.223Z,2.55
2023-03-18T09:16:28.799Z,3.13
2023-03-18T09:18:55.259Z,3.67
2023-03-18T09:21:22.437Z,3.13
2023-03-18T09:23:50.341Z,2.83
2023-03-18T09:26:16.882Z,3.15
2023-03-18T09:28:43.240Z,2.90
2023-03-18T09:31:09.757Z,2.70
2023-03-18T09:33:39.663Z,2.70
2023-03-18T09:36:06.282Z,2.88
2023-03-18T09:38:33.203Z,2.88
2023-03-18T09:41:18.322Z,2.38
2023-03-18T09:43:55.978Z,2.80
2023-03-18T09:46:33.401Z,2.40
2023-03-18T09:49:14.883Z,2.60
2023-03-18T09:54:11.535Z,2.60
2023-03-18T09:56:38.775Z,2.65
2023-03-18T09:59:17.138Z,2.50
2023-03-18T10:01:45.653Z,2.50
2023-03-18T10:04:31.535Z,2.42
2023-03-18T10:07:01.144Z,2.80
2023-03-18T10:09:30.455Z,2.47
2023-03-18T10:12:04.974Z,2.90
2023-03-18T10:14:41.242Z,2.40
2023-03-18T10:17:22.471Z,2.53
2023-03-18T10:19:51.957Z,3.63
2023-03-18T10:22:21.095Z,2.40
2023-03-18T10:25:07.712Z,2.58
2023-03-18T10:27:59.057Z,2.92
2023-03-18T10:30:31.184Z,2.97
2023-03-18T10:33:03.908Z,2.58
2023-03-18T10:35:45.732Z,2.80
2023-03-18T10:38:17.837Z,2.78
2023-03-18T10:40:46.926Z,3.13
2023-03-18T10:43:17.882Z,3.25
2023-03-18T10:45:45.215Z,2.80
2023-03-18T10:48:15.568Z,2.58
2023-03-18T10:51:05.002Z,2.80
2023-03-18T10:53:51.690Z,3.92
2023-03-18T10:56:19.027Z,2.92
2023-03-18T10:58:46.238Z,2.83
2023-03-18T11:01:17.140Z,3.08
2023-03-18T11:03:47.463Z,3.38
2023-03-18T11:06:20.037Z,2.95
2023-03-18T11:08:48.058Z,3.40
2023-03-18T11:11:14.927Z,3.25
2023-03-18T11:13:53.041Z,3.35
2023-03-18T11:16:30.451Z,3.20
2023-03-18T11:18:57.197Z,3.65
2023-03-18T11:21:24.672Z,3.30
2023-03-18T11:24:07.665Z,3.50
2023-03-18T11:26:49.337Z,3.20
2023-03-18T11:29:18.563Z,3.20
2023-03-18T11:31:50.332Z,3.15
2023-03-18T11:34:19.560Z,3.08
2023-03-18T11:36:53.640Z,3.35
2023-03-18T11:39:20.062Z,3.63
2023-03-18T11:41:47.480Z,3.20
2023-03-18T11:44:18.821Z,3.17
2023-03-18T11:46:47.961Z,3.20
2023-03-18T11:49:23.078Z,3.83
2023-03-18T11:51:49.409Z,3.00
2023-03-18T11:54:34.690Z,3.10
2023-03-18T11:57:04.949Z,3.30
2023-03-18T11:59:47.646Z,3.17
2023-03-18T12:02:30.709Z,3.25
2023-03-18T12:05:08.199Z,3.15
2023-03-18T12:07:36.437Z,3.10
2023-03-18T12:10:24.101Z,2.90
2023-03-18T12:13:09.433Z,3.13
2023-03-18T12:15:54.711Z,2.80
2023-03-18T12:18:48.619Z,3.38
2023-03-18T12:21:15.252Z,3.22
2023-03-18T12:23:44.671Z,3.15
2023-03-18T12:26:11.221Z,3.28
2023-03-18T12:28:37.679Z,3.00
2023-03-18T12:31:04.532Z,2.78
2023-03-18T12:33:44.562Z,2.88
2023-03-18T12:36:30.089Z,2.90
2023-03-18T12:39:04.109Z,3.15
2023-03-18T12:41:46.602Z,2.70
2023-03-18T12:44:18.703Z,3.28
2023-03-18T12:46:57.816Z,2.80
2023-03-18T12:49:35.943Z,3.42
2023-03-18T12:52:06.391Z,2.92
2023-03-18T12:54:47.328Z,3.17
2023-03-18T12:57:15.796Z,3.30
2023-03-18T12:59:45.152Z,2.95
2023-03-18T13:02:21.110Z,3.10
2023-03-18T13:04:53.203Z,2.97
2023-03-18T13:07:25.325Z,2.80
2023-03-18T13:09:59.672Z,3.05
2023-03-18T13:12:32.204Z,3.08
2023-03-18T13:15:17.427Z,2.65
2023-03-18T13:17:48.221Z,2.92
2023-03-18T13:20:20.624Z,2.70
2023-03-18T13:22:56.771Z,2.70
2023-03-18T13:25:41.932Z,2.40
2023-03-18T13:28:38.028Z,2.70
2023-03-18T13:31:16.667Z,2.90
2023-03-18T13:33:43.077Z,2.50
2023-03-18T13:36:18.486Z,2.85
2023-03-18T13:39:04.599Z,2.80
2023-03-18T13:41:40.117Z,2.78
2023-03-18T13:44:12.746Z,2.75
2023-03-18T13:46:41.290Z,2.72
2023-03-18T13:49:16.339Z,2.97
2023-03-18T13:51:49.400Z,3.05
2023-03-18T13:54:18.985Z,3.25
2023-03-18T13:56:47.895Z,2.50
2023-03-18T13:59:32.962Z,2.40
2023-03-18T14:02:19.263Z,2.55
2023-03-18T14:04:49.641Z,2.55
2023-03-18T14:07:18.344Z,2.42
2023-03-18T14:09:51.538Z,2.35
2023-03-18T14:12:38.286Z,2.08
2023-03-18T14:15:24.667Z,2.50
2023-03-18T14:17:58.824Z,2.50
2023-03-18T14:20:45.571Z,2.50
2023-03-18T14:23:39.264Z,2.53
2023-03-18T14:26:08.434Z,2.15
2023-03-18T14:28:43.022Z,2.03
2023-03-18T14:31:33.098Z,2.42
2023-03-18T14:33:59.600Z,1.70
2023-03-18T14:36:43.996Z,1.60
2023-03-18T14:39:16.754Z,1.75
2023-03-18T14:41:45.917Z,2.03
2023-03-18T14:44:28.166Z,1.77
2023-03-18T14:46:59.315Z,1.80
2023-03-18T14:49:29.374Z,1.90
2023-03-18T14:51:55.800Z,1.90
2023-03-18T14:54:24.190Z,1.67
2023-03-18T14:56:55.035Z,1.73
2023-03-18T14:59:25.541Z,1.90
2023-03-18T15:01:53.760Z,1.50
2023-03-18T15:04:25.040Z,1.80
2023-03-18T15:06:53.203Z,1.92
2023-03-18T15:09:24.315Z,1.70
2023-03-18T15:14:23.916Z,1.60
2023-03-18T15:16:58.232Z,1.58
2023-03-18T15:19:26.889Z,1.50
2023-03-18T15:21:53.617Z,1.40
2023-03-18T15:24:22.306Z,1.40
2023-03-18T15:26:58.820Z,1.42
2023-03-18T15:29:29.493Z,2.10
2023-03-18T15:32:14.569Z,1.48
2023-03-18T15:34:42.158Z,1.40
2023-03-18T15:37:23.743Z,1.65
2023-03-18T15:39:55.562Z,1.58
2023-03-18T15:42:22.701Z,1.50
2023-03-18T15:44:58.346Z,1.50
2023-03-18T15:47:29.158Z,1.38
2023-03-18T15:49:57.590Z,1.52
2023-03-18T15:52:31.115Z,1.90
2023-03-18T15:54:57.897Z,1.92
2023-03-18T15:57:30.375Z,2.30
2023-03-18T15:59:56.838Z,2.10
2023-03-18T16:02:23.590Z,2.60
2023-03-18T16:04:50.322Z,3.13
2023-03-18T16:07:18.524Z,3.30
2023-03-18T16:09:45.658Z,2.17
2023-03-18T16:12:16.728Z,2.78
2023-03-18T16:14:44.048Z,2.97
2023-03-18T16:17:13.932Z,3.03
2023-03-18T16:19:40.382Z,3.60
2023-03-18T16:22:06.968Z,8.52
2023-03-18T16:24:33.357Z,7.40
2023-03-18T16:26:59.730Z,9.38
2023-03-18T16:29:38.250Z,5.20
2023-03-18T16:32:05.221Z,5.32
2023-03-18T16:34:32.168Z,5.60
2023-03-18T16:36:58.638Z,3.13
2023-03-18T16:39:27.238Z,1.58
2023-03-18T16:41:53.654Z,1.80
2023-03-18T16:44:21.898Z,1.90
2023-03-18T16:46:50.057Z,1.73
2023-03-18T16:49:19.531Z,2.13
2023-03-18T16:51:46.742Z,3.17
2023-03-18T16:54:23.832Z,2.92
2023-03-18T16:56:52.327Z,3.47
2023-03-18T16:59:19.194Z,3.72
2023-03-18T17:01:45.941Z,4.30
2023-03-18T17:04:15.099Z,11.05
2023-03-18T17:06:42.220Z,9.13
2023-03-18T17:09:08.666Z,5.53
2023-03-18T17:11:35.200Z,3.25
2023-03-18T17:14:03.075Z,2.58
2023-03-18T17:16:31.926Z,2.45
2023-03-18T17:18:58.939Z,3.28
2023-03-18T17:21:32.305Z,3.08
2023-03-18T17:23:58.909Z,4.25
2023-03-18T17:26:25.647Z,3.88
2023-03-18T17:28:53.958Z,4.20
2023-03-18T17:31:20.898Z,3.00
2023-03-18T17:33:47.775Z,3.30
2023-03-18T17:36:14.163Z,3.38
2023-03-18T17:38:41.072Z,3.35
2023-03-18T17:41:19.043Z,2.55
2023-03-18T17:43:45.650Z,3.10
2023-03-18T17:46:12.317Z,3.83
2023-03-18T17:48:39.307Z,3.33
2023-03-18T17:51:07.536Z,2.95
2023-03-18T17:53:35.203Z,2.20
2023-03-18T17:56:03.089Z,2.03
2023-03-18T17:58:30.213Z,2.15
2023-03-18T18:01:00.972Z,2.30
2023-03-18T18:03:28.874Z,2.70
2023-03-18T18:05:56.287Z,2.88
2023-03-18T18:08:24.443Z,3.38
2023-03-18T18:10:51.987Z,10.70
2023-03-18T18:13:22.401Z,10.70
2023-03-18T18:15:50.515Z,6.13
2023-03-18T18:18:23.183Z,3.17
2023-03-18T18:20:52.860Z,1.90
2023-03-18T18:23:23.545Z,1.98
2023-03-18T18:25:50.427Z,2.83
2023-03-18T18:28:24.475Z,2.30
2023-03-18T18:30:50.912Z,2.13
2023-03-18T18:33:17.303Z,1.90
2023-03-18T18:35:43.838Z,2.20
2023-03-18T18:38:10.256Z,1.83
2023-03-18T18:40:36.623Z,1.92
2023-03-18T18:43:03.298Z,1.75
2023-03-18T18:45:30.216Z,2.00
2023-03-18T18:47:57.332Z,2.22
2023-03-18T18:50:27.064Z,1.90
2023-03-18T18:52:53.939Z,1.88
2023-03-18T18:55:20.351Z,2.13
2023-03-18T18:57:46.834Z,2.17
2023-03-18T19:00:17.394Z,2.20
2023-03-18T19:02:46.461Z,2.60
2023-03-18T19:05:13.263Z,2.28
2023-03-18T19:07:41.625Z,2.05
2023-03-18T19:10:13.254Z,1.90
2023-03-18T19:12:39.963Z,2.45
2023-03-18T19:15:06.983Z,2.40
2023-03-18T19:17:33.612Z,2.53
2023-03-18T19:20:00.191Z,2.30
2023-03-18T19:22:26.630Z,2.30
2023-03-18T19:24:53.050Z,2.28
2023-03-18T19:27:23.515Z,2.50
2023-03-18T19:29:50.308Z,1.98
2023-03-18T19:32:20.404Z,2.20
2023-03-18T19:34:51.698Z,2.28
2023-03-18T19:39:46.405Z,2.20
2023-03-18T19:42:13.740Z,2.40
2023-03-18T19:44:40.084Z,2.65
2023-03-18T19:47:12.456Z,2.65
2023-03-18T19:49:39.389Z,2.53
2023-03-18T19:52:26.437Z,2.13
2023-03-18T19:54:53.801Z,2.13
2023-03-18T19:57:25.356Z,2.00
2023-03-18T19:59:52.824Z,2.38
2023-03-18T20:02:19.915Z,2.58
2023-03-18T20:04:47.817Z,2.55
2023-03-18T20:07:14.218Z,2.63
2023-03-18T20:09:40.740Z,2.33
2023-03-18T20:12:15.320Z,2.60
2023-03-18T20:14:41.826Z,2.50
2023-03-18T20:17:24.134Z,2.10
2023-03-18T20:19:50.801Z,2.58
2023-03-18T20:22:22.158Z,2.45
2023-03-18T20:24:48.983Z,2.20
2023-03-18T20:27:17.164Z,2.55
2023-03-18T20:29:44.473Z,2.58
2023-03-18T20:32:10.919Z,1.98
2023-03-18T20:34:38.612Z,2.42
2023-03-18T20:37:15.637Z,2.90
2023-03-18T20:39:42.068Z,2.20
2023-03-18T20:42:14.215Z,2.38
2023-03-18T20:44:40.753Z,8.77
2023-03-18T20:47:07.166Z,2.10
2023-03-18T20:49:33.910Z,2.40
2023-03-18T20:52:00.375Z,2.10
2023-03-18T20:54:31.265Z,2.30
2023-03-18T20:56:57.644Z,2.28
2023-03-18T20:59:24.087Z,2.50
2023-03-18T21:01:51.149Z,2.08
2023-03-18T21:04:17.549Z,2.40
2023-03-18T21:06:44.084Z,3.08
2023-03-18T21:09:12.235Z,2.90
2023-03-18T21:11:38.982Z,2.92
2023-03-18T21:14:05.613Z,3.38
2023-03-18T21:16:34.638Z,3.78
2023-03-18T21:19:03.011Z,3.42
2023-03-18T21:21:34.614Z,3.08
2023-03-18T21:24:01.210Z,2.75
2023-03-18T21:26:28.361Z,2.78
2023-03-18T21:28:54.835Z,2.40
2023-03-18T21:31:23.671Z,2.63
2023-03-18T21:33:51.388Z,3.00
2023-03-18T21:36:17.794Z,2.80
2023-03-18T21:38:44.123Z,2.70
2023-03-18T21:41:29.177Z,2.95
2023-03-18T21:43:55.811Z,2.40
2023-03-18T21:46:24.544Z,2.88
2023-03-18T21:48:51.308Z,2.60
2023-03-18T21:51:38.713Z,3.80
2023-03-18T21:54:06.256Z,3.33
2023-03-18T21:56:32.672Z,2.83
2023-03-18T21:58:59.127Z,2.78
2023-03-18T22:01:27.673Z,2.47
2023-03-18T22:03:54.364Z,2.42
2023-03-18T22:06:21.197Z,2.63
2023-03-18T22:08:48.354Z,2.63
2023-03-18T22:11:15.964Z,2.65
2023-03-18T22:13:42.658Z,2.65
2023-03-18T22:16:16.374Z,2.70
2023-03-18T22:18:43.694Z,3.00
2023-03-18T22:21:19.185Z,3.22
2023-03-18T22:23:45.636Z,3.30
2023-03-18T22:26:14.106Z,3.08
2023-03-18T22:28:40.547Z,2.97
2023-03-18T22:31:11.309Z,2.40
2023-03-18T22:33:37.854Z,2.67
2023-03-18T22:36:04.526Z,2.90
2023-03-18T22:38:31.796Z,2.90
2023-03-18T22:40:58.210Z,2.70
2023-03-18T22:43:27.633Z,3.25
2023-03-18T22:45:54.072Z,4.32
2023-03-18T22:48:20.743Z,4.25
2023-03-18T22:50:47.161Z,4.43
2023-03-18T22:53:18.248Z,5.35
2023-03-18T22:55:44.629Z,4.53
2023-03-18T22:58:17.381Z,4.38
2023-03-18T23:00:44.691Z,4.47
2023-03-18T23:03:13.373Z,2.90
2023-03-18T23:05:39.853Z,3.35
2023-03-18T23:08:06.216Z,5.65
2023-03-18T23:10:32.717Z,7.53
2023-03-18T23:12:59.078Z,3.72
2023-03-18T23:15:25.505Z,3.15
2023-03-18T23:17:52.043Z,3.30
2023-03-18T23:20:18.635Z,5.45
2023-03-18T23:22:45.775Z,4.65
2023-03-18T23:25:13.977Z,3.00
2023-03-18T23:27:40.543Z,3.40
2023-03-18T23:30:07.161Z,2.67
2023-03-18T23:32:35.241Z,3.10
2023-03-18T23:35:01.869Z,2.50
2023-03-18T23:37:28.277Z,2.10
2023-03-18T23:39:54.610Z,2.60
2023-03-18T23:42:21.224Z,2.30
2023-03-18T23:44:47.599Z,2.50
2023-03-18T23:47:14.782Z,2.65
2023-03-18T23:49:41.286Z,2.20
2023-03-18T23:52:09.545Z,2.58
2023-03-18T23:54:36.449Z,2.60
2023-03-18T23:57:03.672Z,2.70
2023-03-18T23:59:30.716Z,2.78
